Time;durP1;ratioP1;P1;durP2;ratioP2;P2;SDS_P1;SDS_P2;PMS_P1;PMS_P2;Temp;Humidity;BMP_temperature;BMP_pressure;BME280_temperature;BME280_humidity;BME280_pressure;Samples;Min_cycle;Max_cycle;Signal;HPM_P1;HPM_P2
2023/12/29 00:00:36;;;;;;;3.07;2.43;;;8.30;99.90;;;;;;4994067;28;20218;-71
2023/12/29 00:03:02;;;;;;;3.17;2.40;;;8.30;99.90;;;;;;4994617;28;20274;-74
2023/12/29 00:05:28;;;;;;;4.67;2.57;;;8.30;99.90;;;;;;4994319;28;20221;-73
2023/12/29 00:07:54;;;;;;;3.40;2.43;;;8.20;99.90;;;;;;4998076;28;20484;-74
2023/12/29 00:10:19;;;;;;;2.30;2.10;;;8.20;99.90;;;;;;5001418;28;20230;-74
2023/12/29 00:12:45;;;;;;;3.23;2.27;;;8.20;99.90;;;;;;4996022;28;20217;-74
2023/12/29 00:15:11;;;;;;;5.03;2.90;;;8.20;99.90;;;;;;4979768;28;20218;-73
2023/12/29 00:17:39;;;;;;;2.80;2.50;;;8.20;99.90;;;;;;4994482;28;20341;-74
2023/12/29 00:20:07;;;;;;;4.60;3.00;;;8.20;99.90;;;;;;4979503;28;20464;-72
2023/12/29 00:22:33;;;;;;;2.77;2.57;;;8.10;99.90;;;;;;4983681;28;20446;-74
2023/12/29 00:24:59;;;;;;;5.50;2.47;;;8.10;99.90;;;;;;4994735;28;20450;-72
2023/12/29 00:27:25;;;;;;;2.67;2.47;;;8.10;99.90;;;;;;4997879;28;20452;-74
2023/12/29 00:29:50;;;;;;;2.67;2.47;;;8.10;99.90;;;;;;4977352;28;20759;-74
2023/12/29 00:32:16;;;;;;;2.77;2.57;;;8.10;99.90;;;;;;4997814;28;20246;-74
2023/12/29 00:34:42;;;;;;;2.53;2.33;;;8.10;99.90;;;;;;4999076;28;20684;-74
2023/12/29 00:37:08;;;;;;;5.07;2.57;;;8.10;99.90;;;;;;4998236;28;20268;-74
2023/12/29 00:39:38;;;;;;;3.87;3.30;;;8.10;99.90;;;;;;4998883;28;20222;-74
2023/12/29 00:42:05;;;;;;;3.13;2.60;;;8.10;99.90;;;;;;4998497;28;21096;-73
2023/12/29 00:44:33;;;;;;;3.43;3.07;;;8.10;99.90;;;;;;4989893;28;20804;-74
2023/12/29 00:46:59;;;;;;;6.93;2.57;;;8.10;99.90;;;;;;4987401;28;20448;-74
2023/12/29 00:49:26;;;;;;;2.70;2.47;;;8.10;99.90;;;;;;5000447;28;20458;-74
2023/12/29 00:51:52;;;;;;;2.70;2.50;;;8.10;99.90;;;;;;4999561;28;20469;-74
2023/12/29 00:54:18;;;;;;;2.70;2.37;;;8.10;99.90;;;;;;4980798;28;21203;-74
2023/12/29 00:56:51;;;;;;;2.53;2.33;;;8.10;99.90;;;;;;5003337;28;20452;-74
2023/12/29 00:59:19;;;;;;;2.47;2.23;;;8.10;99.90;;;;;;4989379;28;20246;-74
2023/12/29 01:01:45;;;;;;;3.50;2.13;;;8.10;99.90;;;;;;4995530;28;20453;-74
2023/12/29 01:04:12;;;;;;;3.20;2.43;;;8.00;99.90;;;;;;4984073;28;20449;-74
2023/12/29 01:06:37;;;;;;;2.37;2.03;;;8.00;99.90;;;;;;4997621;28;20452;-73
2023/12/29 01:09:03;;;;;;;3.03;2.63;;;8.00;99.90;;;;;;4999938;28;20211;-73
2023/12/29 01:11:29;;;;;;;2.73;2.20;;;8.00;99.90;;;;;;4977635;28;20224;-74
2023/12/29 01:13:55;;;;;;;2.47;1.80;;;8.00;99.90;;;;;;4989410;28;20210;-74
2023/12/29 01:16:21;;;;;;;1.97;1.80;;;8.00;99.90;;;;;;4999274;28;20704;-74
2023/12/29 01:18:46;;;;;;;2.37;2.17;;;8.00;99.90;;;;;;4998206;28;20454;-74
2023/12/29 01:21:12;;;;;;;4.10;2.53;;;8.00;99.90;;;;;;5000495;28;20226;-74
2023/12/29 01:23:38;;;;;;;2.97;2.10;;;8.00;99.90;;;;;;4999168;28;20218;-74
2023/12/29 01:26:04;;;;;;;4.50;2.77;;;8.00;99.90;;;;;;4996798;28;20295;-74
2023/12/29 01:28:29;;;;;;;2.10;2.00;;;8.00;99.90;;;;;;5003058;28;20336;-74
2023/12/29 01:30:55;;;;;;;4.43;2.00;;;8.00;99.90;;;;;;5001693;28;20229;-73
2023/12/29 01:33:21;;;;;;;2.77;2.07;;;8.00;99.90;;;;;;4995546;28;20237;-72
2023/12/29 01:35:47;;;;;;;1.90;1.80;;;8.00;99.90;;;;;;4998276;28;20221;-74
2023/12/29 01:38:13;;;;;;;4.80;2.50;;;8.00;99.90;;;;;;4993572;28;20269;-74
2023/12/29 01:40:44;;;;;;;3.63;1.90;;;8.00;99.90;;;;;;5001323;28;20510;-74
2023/12/29 01:43:10;;;;;;;1.30;1.20;;;8.00;99.90;;;;;;4998656;28;20462;-73
2023/12/29 01:45:36;;;;;;;1.70;1.60;;;8.00;99.90;;;;;;4979051;28;20470;-74
2023/12/29 01:48:02;;;;;;;2.77;1.90;;;8.00;99.90;;;;;;4980497;28;20278;-72
2023/12/29 01:50:29;;;;;;;3.53;2.00;;;8.00;99.90;;;;;;4982951;28;20536;-75
2023/12/29 01:52:56;;;;;;;3.00;2.20;;;8.00;99.90;;;;;;4998414;28;20834;-74
2023/12/29 01:55:25;;;;;;;2.70;1.80;;;8.00;99.90;;;;;;4999589;28;20541;-74
2023/12/29 01:57:51;;;;;;;2.20;2.00;;;8.00;99.90;;;;;;5002049;28;20495;-74
2023/12/29 02:00:20;;;;;;;2.40;2.20;;;8.00;99.90;;;;;;4978539;28;20473;-74
2023/12/29 02:02:48;;;;;;;1.30;1.20;;;8.00;99.90;;;;;;4992079;28;20454;-74
2023/12/29 02:05:17;;;;;;;2.13;1.87;;;8.00;99.90;;;;;;4992257;28;21076;-74
2023/12/29 02:07:43;;;;;;;2.37;1.90;;;8.00;99.90;;;;;;4991063;28;20472;-75
2023/12/29 02:10:15;;;;;;;2.30;2.10;;;8.00;99.90;;;;;;5005183;28;20445;-74
2023/12/29 02:12:41;;;;;;;2.43;1.80;;;8.00;99.90;;;;;;5004270;28;20209;-74
2023/12/29 02:15:08;;;;;;;2.27;1.60;;;8.00;99.90;;;;;;4990396;28;20441;-74
2023/12/29 02:17:59;;;;;;;2.33;2.10;;;8.10;99.90;;;;;;5004244;28;20207;-75
2023/12/29 02:20:25;;;;;;;3.63;2.10;;;8.10;99.90;;;;;;4985721;28;20503;-75
2023/12/29 02:22:51;;;;;;;1.97;1.80;;;8.10;99.90;;;;;;4989231;28;20461;-75
2023/12/29 02:25:20;;;;;;;2.20;2.00;;;8.10;99.90;;;;;;4991568;28;20449;-75
2023/12/29 02:27:58;;;;;;;2.63;2.40;;;8.10;99.90;;;;;;4989572;28;20222;-75
2023/12/29 02:30:35;;;;;;;1.73;1.63;;;8.10;99.90;;;;;;4981460;28;20472;-75
2023/12/29 02:33:05;;;;;;;2.23;2.00;;;8.20;99.90;;;;;;4998030;28;20828;-74
2023/12/29 02:35:37;;;;;;;2.93;2.60;;;8.20;99.90;;;;;;4995906;28;20465;-74
2023/12/29 02:38:03;;;;;;;4.70;2.47;;;8.10;99.90;;;;;;4997456;28;20499;-74
2023/12/29 02:40:29;;;;;;;3.20;2.10;;;8.10;99.90;;;;;;4980253;28;20498;-74
2023/12/29 02:42:55;;;;;;;7.83;2.43;;;8.20;99.90;;;;;;5008605;28;20520;-74
2023/12/29 02:45:21;;;;;;;1.87;1.73;;;8.20;99.90;;;;;;4990755;28;20852;-74
2023/12/29 02:47:48;;;;;;;2.63;2.20;;;8.20;99.90;;;;;;4997418;28;20537;-74
2023/12/29 02:50:14;;;;;;;2.50;1.90;;;8.20;99.90;;;;;;4998516;28;20305;-74
2023/12/29 02:52:40;;;;;;;2.07;1.97;;;8.20;99.90;;;;;;4999122;28;20939;-74
2023/12/29 02:55:06;;;;;;;2.63;2.07;;;8.20;99.90;;;;;;5008387;28;20623;-74
2023/12/29 02:57:32;;;;;;;2.50;2.30;;;8.20;99.90;;;;;;4982771;28;20211;-74
2023/12/29 02:59:57;;;;;;;2.47;2.13;;;8.20;99.90;;;;;;5002206;28;20990;-74
2023/12/29 03:02:24;;;;;;;2.77;2.03;;;8.20;99.90;;;;;;5003949;28;20254;-74
2023/12/29 03:04:49;;;;;;;1.90;1.80;;;8.20;99.90;;;;;;5003166;28;20212;-74
2023/12/29 03:07:16;;;;;;;2.53;2.30;;;8.20;99.90;;;;;;4994584;28;20545;-74
2023/12/29 03:09:42;;;;;;;2.80;1.90;;;8.20;99.90;;;;;;5000624;28;20589;-75
2023/12/29 03:12:07;;;;;;;6.73;1.87;;;8.20;99.90;;;;;;4989793;28;20472;-74
2023/12/29 03:14:33;;;;;;;2.23;2.03;;;8.20;99.90;;;;;;4987856;28;20295;-74
2023/12/29 03:17:00;;;;;;;5.73;1.73;;;8.20;99.90;;;;;;4992787;28;20218;-74
2023/12/29 03:19:27;;;;;;;5.30;2.40;;;8.20;99.90;;;;;;4991200;28;20473;-75
2023/12/29 03:21:53;;;;;;;2.40;2.17;;;8.20;99.90;;;;;;5005876;28;20563;-75
2023/12/29 03:24:19;;;;;;;3.90;1.67;;;8.20;99.90;;;;;;4984499;28;20468;-74
2023/12/29 03:26:47;;;;;;;3.30;2.10;;;8.20;99.90;;;;;;4989964;28;20524;-74
2023/12/29 03:29:12;;;;;;;1.83;1.73;;;8.20;99.90;;;;;;4991525;28;21022;-74
2023/12/29 03:31:39;;;;;;;1.80;1.70;;;8.20;99.90;;;;;;4976357;28;20684;-74
2023/12/29 03:34:05;;;;;;;2.80;1.60;;;8.10;99.90;;;;;;4992567;28;20689;-74
2023/12/29 03:36:31;;;;;;;3.57;2.20;;;8.10;99.90;;;;;;4999076;28;20542;-74
2023/12/29 03:38:57;;;;;;;3.97;2.10;;;8.10;99.90;;;;;;4992262;28;20445;-74
2023/12/29 03:41:23;;;;;;;1.97;1.77;;;8.10;99.90;;;;;;4992280;28;20233;-74
2023/12/29 03:43:49;;;;;;;2.30;2.20;;;8.10;99.90;;;;;;5002206;28;20853;-74
2023/12/29 03:46:19;;;;;;;2.50;2.00;;;8.10;99.90;;;;;;4990700;28;20277;-74
2023/12/29 03:48:45;;;;;;;3.00;2.27;;;8.00;99.90;;;;;;5000422;28;20461;-75
2023/12/29 03:51:11;;;;;;;2.87;1.63;;;8.00;99.90;;;;;;5006346;28;20473;-74
2023/12/29 03:53:37;;;;;;;2.40;1.80;;;8.10;99.90;;;;;;5000969;28;20456;-75
2023/12/29 03:56:12;;;;;;;2.30;2.00;;;8.10;99.90;;;;;;5002986;28;20227;-74
2023/12/29 03:58:38;;;;;;;2.63;1.93;;;8.10;99.90;;;;;;4991530;28;20213;-75
2023/12/29 04:01:08;;;;;;;2.17;1.87;;;8.10;99.90;;;;;;4985678;28;20994;-73
2023/12/29 04:03:34;;;;;;;2.20;1.67;;;8.10;99.90;;;;;;4984544;28;20333;-74
2023/12/29 04:06:00;;;;;;;2.10;1.90;;;8.10;99.90;;;;;;4990336;28;20579;-74
2023/12/29 04:08:25;;;;;;;1.80;1.70;;;8.10;99.90;;;;;;4997824;28;20233;-74
2023/12/29 04:10:51;;;;;;;2.20;2.00;;;8.10;99.90;;;;;;4988433;28;20211;-74
2023/12/29 04:13:17;;;;;;;2.53;2.20;;;8.00;99.90;;;;;;4991024;28;20226;-74
2023/12/29 04:15:42;;;;;;;1.90;1.70;;;8.00;99.90;;;;;;4990640;28;20217;-75
2023/12/29 04:18:08;;;;;;;1.90;1.80;;;8.10;99.90;;;;;;4999047;28;20314;-74
2023/12/29 04:20:34;;;;;;;4.70;2.00;;;8.10;99.90;;;;;;4987367;28;20256;-74
2023/12/29 04:22:59;;;;;;;2.70;2.23;;;8.10;99.90;;;;;;4988835;28;20218;-74
2023/12/29 04:25:25;;;;;;;2.27;2.07;;;8.00;99.90;;;;;;5003097;28;20218;-74
2023/12/29 04:27:50;;;;;;;3.10;2.37;;;8.10;99.90;;;;;;4988104;28;20217;-74
2023/12/29 04:30:17;;;;;;;2.27;2.03;;;8.10;99.90;;;;;;5004182;28;20221;-74
2023/12/29 04:32:42;;;;;;;6.37;2.07;;;8.10;99.90;;;;;;5007572;28;20809;-74
2023/12/29 04:35:12;;;;;;;2.67;2.00;;;8.10;99.90;;;;;;5002989;28;20219;-75
2023/12/29 04:37:38;;;;;;;2.23;2.03;;;8.10;99.90;;;;;;4993577;28;20461;-74
2023/12/29 04:40:05;;;;;;;3.37;2.63;;;8.10;99.90;;;;;;5004585;28;20472;-73
2023/12/29 04:42:31;;;;;;;3.40;1.83;;;8.10;99.90;;;;;;4989851;28;20453;-74
2023/12/29 04:44:56;;;;;;;6.43;2.80;;;8.10;99.90;;;;;;4995290;28;20450;-74
2023/12/29 04:47:22;;;;;;;2.50;2.30;;;8.00;99.90;;;;;;4997665;28;20284;-74
2023/12/29 04:49:48;;;;;;;2.10;1.80;;;8.10;99.90;;;;;;4998328;28;20221;-74
2023/12/29 04:52:13;;;;;;;2.60;2.10;;;8.10;99.90;;;;;;5010743;28;20288;-74
2023/12/29 04:54:39;;;;;;;2.40;2.20;;;8.10;99.90;;;;;;4986106;28;20313;-75
2023/12/29 04:57:05;;;;;;;1.93;1.83;;;8.00;99.90;;;;;;4997950;28;20222;-75
2023/12/29 04:59:30;;;;;;;2.70;2.30;;;8.00;99.90;;;;;;5004834;28;20222;-74
2023/12/29 05:01:56;;;;;;;2.13;1.93;;;8.00;99.90;;;;;;5001629;28;20768;-74
2023/12/29 05:04:22;;;;;;;2.83;1.80;;;8.00;99.90;;;;;;4998806;28;20268;-74
2023/12/29 05:06:47;;;;;;;2.67;2.30;;;8.00;99.90;;;;;;5002141;28;20297;-74
2023/12/29 05:09:13;;;;;;;3.53;2.80;;;8.00;99.90;;;;;;5002986;28;20299;-74
2023/12/29 05:11:39;;;;;;;2.57;2.03;;;8.00;99.90;;;;;;5007160;28;20300;-74
2023/12/29 05:14:05;;;;;;;2.50;1.73;;;8.00;99.90;;;;;;4997371;28;20214;-74
2023/12/29 05:16:31;;;;;;;5.53;2.30;;;8.00;99.90;;;;;;5008692;28;20524;-74
2023/12/29 05:18:56;;;;;;;2.10;1.90;;;8.00;99.90;;;;;;5003720;28;20223;-75
2023/12/29 05:21:24;;;;;;;1.70;1.60;;;8.00;99.90;;;;;;4997369;28;20238;-74
2023/12/29 05:23:49;;;;;;;4.10;2.13;;;8.00;99.90;;;;;;4993009;28;20269;-74
2023/12/29 05:26:15;;;;;;;1.87;1.70;;;8.00;99.90;;;;;;5000228;28;20431;-74
2023/12/29 05:28:41;;;;;;;1.93;1.70;;;8.10;99.90;;;;;;4978949;28;20219;-74
2023/12/29 05:31:07;;;;;;;2.50;2.30;;;8.10;99.90;;;;;;5000202;28;20214;-74
2023/12/29 05:33:33;;;;;;;2.10;1.90;;;8.10;99.90;;;;;;5003563;28;20260;-74
2023/12/29 05:36:05;;;;;;;1.77;1.67;;;8.10;99.90;;;;;;4992554;28;20222;-74
2023/12/29 05:38:31;;;;;;;2.97;1.90;;;8.10;99.90;;;;;;4991753;28;20489;-74
2023/12/29 05:40:57;;;;;;;2.60;1.70;;;8.10;99.90;;;;;;4992842;28;20975;-74
2023/12/29 05:43:22;;;;;;;2.13;1.93;;;8.10;99.90;;;;;;4998482;28;20562;-74
2023/12/29 05:45:48;;;;;;;1.80;1.70;;;8.10;99.90;;;;;;4994548;28;20216;-75
2023/12/29 05:48:14;;;;;;;1.70;1.60;;;8.20;99.90;;;;;;4992801;28;20689;-74
2023/12/29 05:50:39;;;;;;;3.17;1.90;;;8.20;99.90;;;;;;4991480;28;20303;-75
2023/12/29 05:53:06;;;;;;;2.67;2.13;;;8.20;99.90;;;;;;5004703;28;20696;-75
2023/12/29 05:55:31;;;;;;;2.30;2.10;;;8.20;99.90;;;;;;4988707;28;20227;-75
2023/12/29 05:57:57;;;;;;;3.90;2.40;;;8.20;99.90;;;;;;4999181;28;20813;-75
2023/12/29 06:00:23;;;;;;;3.73;2.37;;;8.30;99.90;;;;;;4990118;28;20249;-74
2023/12/29 06:02:48;;;;;;;2.60;2.17;;;8.40;99.90;;;;;;4998568;28;20285;-75
2023/12/29 06:05:15;;;;;;;3.00;2.40;;;8.40;99.90;;;;;;5002612;28;20565;-74
2023/12/29 06:07:41;;;;;;;2.43;2.10;;;8.50;99.90;;;;;;4998509;28;20223;-74
2023/12/29 06:10:08;;;;;;;4.60;2.43;;;8.40;99.90;;;;;;4996928;28;20459;-74
2023/12/29 06:12:34;;;;;;;2.03;1.90;;;8.50;99.90;;;;;;5000529;28;20593;-74
2023/12/29 06:15:00;;;;;;;6.20;2.20;;;8.50;99.90;;;;;;4993488;28;20458;-76
2023/12/29 06:17:26;;;;;;;2.10;1.90;;;8.60;99.90;;;;;;4989875;28;20210;-74
2023/12/29 06:19:52;;;;;;;4.23;2.07;;;8.60;99.90;;;;;;5004725;28;20469;-75
2023/12/29 06:22:18;;;;;;;2.10;2.00;;;8.60;99.90;;;;;;4997919;28;20238;-75
2023/12/29 06:24:44;;;;;;;2.13;1.70;;;8.60;99.90;;;;;;4999214;28;20485;-75
2023/12/29 06:27:12;;;;;;;3.00;1.93;;;8.60;99.90;;;;;;5003675;28;20300;-74
2023/12/29 06:29:37;;;;;;;1.70;1.60;;;8.70;99.90;;;;;;5006088;28;20457;-75
2023/12/29 06:32:04;;;;;;;2.10;1.90;;;8.70;99.90;;;;;;4998854;28;20507;-74
2023/12/29 06:34:30;;;;;;;4.20;2.17;;;8.70;99.90;;;;;;4994317;28;20305;-74
2023/12/29 06:36:55;;;;;;;3.73;2.57;;;8.80;99.90;;;;;;5002350;28;20529;-74
2023/12/29 06:39:22;;;;;;;2.17;1.97;;;8.80;99.90;;;;;;5001004;28;20237;-74
2023/12/29 06:41:48;;;;;;;2.20;2.00;;;8.80;99.90;;;;;;4994744;28;20256;-75
2023/12/29 06:44:14;;;;;;;2.00;1.80;;;8.80;99.90;;;;;;4991794;28;20558;-74
2023/12/29 06:46:39;;;;;;;2.40;2.07;;;8.80;99.90;;;;;;4996636;28;20233;-74
2023/12/29 06:49:09;;;;;;;2.10;1.90;;;8.90;99.90;;;;;;4996599;28;20221;-74
2023/12/29 06:51:35;;;;;;;2.00;1.80;;;8.90;99.90;;;;;;4999439;28;20297;-74
2023/12/29 06:54:01;;;;;;;2.87;2.23;;;8.90;99.90;;;;;;5003629;28;20449;-74
2023/12/29 06:56:27;;;;;;;2.40;1.90;;;8.90;99.90;;;;;;5003142;28;20440;-74
2023/12/29 06:58:53;;;;;;;3.27;2.00;;;8.90;99.90;;;;;;4981936;28;20528;-74
2023/12/29 07:01:19;;;;;;;2.63;2.13;;;8.90;99.90;;;;;;5004543;28;20233;-74
2023/12/29 07:03:45;;;;;;;3.13;1.70;;;8.90;99.90;;;;;;4992779;28;20306;-75
2023/12/29 07:06:10;;;;;;;3.53;2.10;;;8.90;99.90;;;;;;4988973;28;20222;-74
2023/12/29 07:08:36;;;;;;;2.33;1.97;;;9.00;99.90;;;;;;5012692;28;20746;-74
2023/12/29 07:11:02;;;;;;;3.00;1.83;;;9.00;99.90;;;;;;4996097;28;20215;-74
2023/12/29 07:13:28;;;;;;;4.33;2.47;;;9.00;99.90;;;;;;4992909;28;20236;-74
2023/12/29 07:15:54;;;;;;;3.93;1.77;;;9.00;99.90;;;;;;5000907;28;20214;-74
2023/12/29 07:18:20;;;;;;;4.73;1.80;;;9.00;99.90;;;;;;4990180;28;20247;-74
2023/12/29 07:20:45;;;;;;;3.10;1.93;;;9.00;99.90;;;;;;4997734;28;20485;-74
2023/12/29 07:23:11;;;;;;;1.73;1.57;;;9.00;99.90;;;;;;5000355;28;20272;-73
2023/12/29 07:25:37;;;;;;;2.57;1.93;;;9.10;99.90;;;;;;4987284;28;20226;-73
2023/12/29 07:28:03;;;;;;;3.13;1.77;;;9.00;99.90;;;;;;4984933;28;20210;-74
2023/12/29 07:30:28;;;;;;;1.70;1.60;;;9.00;99.90;;;;;;4993836;28;20769;-74
2023/12/29 07:32:54;;;;;;;1.53;1.43;;;9.10;99.90;;;;;;4985390;28;20217;-74
2023/12/29 07:35:20;;;;;;;1.70;1.60;;;9.10;99.90;;;;;;5005620;28;20268;-74
2023/12/29 07:37:48;;;;;;;2.27;2.07;;;9.10;99.90;;;;;;4998931;28;20221;-74
2023/12/29 07:40:15;;;;;;;2.40;1.97;;;9.10;99.90;;;;;;4988760;28;20234;-74
2023/12/29 07:42:41;;;;;;;4.40;1.90;;;9.10;99.90;;;;;;5002838;28;20449;-74
2023/12/29 07:45:08;;;;;;;2.17;1.90;;;9.10;99.90;;;;;;4985156;28;20449;-74
2023/12/29 07:47:34;;;;;;;3.37;2.13;;;9.10;99.90;;;;;;4998559;28;20532;-74
2023/12/29 07:49:59;;;;;;;1.77;1.50;;;9.10;99.90;;;;;;4995305;28;20563;-74
2023/12/29 07:52:25;;;;;;;2.73;1.90;;;9.10;99.90;;;;;;4988950;28;20226;-75
2023/12/29 07:54:51;;;;;;;1.50;1.40;;;9.10;99.90;;;;;;5002094;28;20596;-75
2023/12/29 07:57:16;;;;;;;1.87;1.77;;;9.10;99.90;;;;;;4983132;28;20233;-74
2023/12/29 07:59:42;;;;;;;1.83;1.50;;;9.20;99.90;;;;;;5003723;28;20233;-74
2023/12/29 08:02:08;;;;;;;1.80;1.70;;;9.20;99.90;;;;;;5002994;28;20214;-74
2023/12/29 08:04:35;;;;;;;2.77;1.80;;;9.20;99.90;;;;;;4992462;28;20693;-74
2023/12/29 08:07:01;;;;;;;6.50;2.40;;;9.20;99.90;;;;;;4988609;28;20218;-74
2023/12/29 08:09:27;;;;;;;2.60;2.27;;;9.20;99.90;;;;;;4990030;28;20514;-74
2023/12/29 08:11:53;;;;;;;2.03;1.80;;;9.20;99.90;;;;;;4983995;28;20241;-75
2023/12/29 08:14:18;;;;;;;1.90;1.73;;;9.20;99.90;;;;;;4996760;28;20445;-75
2023/12/29 08:16:44;;;;;;;2.10;1.70;;;9.20;99.90;;;;;;4996260;28;20230;-75
2023/12/29 08:19:10;;;;;;;2.67;1.60;;;9.20;99.90;;;;;;4995071;28;20233;-75
2023/12/29 08:21:39;;;;;;;1.83;1.70;;;9.20;99.90;;;;;;4985487;28;20281;-75
2023/12/29 08:24:05;;;;;;;5.90;3.07;;;9.20;99.90;;;;;;4989763;28;20222;-75
2023/12/29 08:26:30;;;;;;;1.83;1.63;;;9.20;99.90;;;;;;4993344;28;20504;-75
2023/12/29 08:28:56;;;;;;;1.77;1.67;;;9.20;99.90;;;;;;5007171;28;20841;-74
2023/12/29 08:31:23;;;;;;;1.50;1.40;;;9.20;99.90;;;;;;5006279;28;20623;-74
2023/12/29 08:33:48;;;;;;;10.10;1.80;;;9.20;99.90;;;;;;4993059;28;20230;-74
2023/12/29 08:36:18;;;;;;;2.77;1.53;;;9.20;99.90;;;;;;4995878;28;20845;-74
2023/12/29 08:38:43;;;;;;;5.13;1.87;;;9.30;99.90;;;;;;4977997;28;20230;-74
2023/12/29 08:41:09;;;;;;;3.77;1.50;;;9.30;99.90;;;;;;4989857;28;21001;-74
2023/12/29 08:43:36;;;;;;;6.27;1.60;;;9.30;99.90;;;;;;5000663;28;20229;-74
2023/12/29 08:46:02;;;;;;;2.37;1.77;;;9.30;99.90;;;;;;4978409;28;20222;-74
2023/12/29 08:48:28;;;;;;;1.87;1.60;;;9.30;99.90;;;;;;4991547;28;20472;-74
2023/12/29 08:50:53;;;;;;;1.77;1.13;;;9.30;99.90;;;;;;4996741;28;20859;-75
2023/12/29 08:53:19;;;;;;;4.97;1.40;;;9.30;99.90;;;;;;4990972;28;20218;-74
2023/12/29 08:55:45;;;;;;;1.80;1.70;;;9.30;99.90;;;;;;4990772;28;20257;-74
2023/12/29 08:58:12;;;;;;;2.20;1.20;;;9.30;99.90;;;;;;4982577;28;20222;-74
2023/12/29 09:00:37;;;;;;;2.57;1.63;;;9.40;99.90;;;;;;4996321;28;20226;-75
2023/12/29 09:03:03;;;;;;;2.70;1.17;;;9.40;99.90;;;;;;4992706;28;20975;-75
2023/12/29 09:05:29;;;;;;;2.20;2.00;;;9.40;99.90;;;;;;4991992;28;20704;-73
2023/12/29 09:07:54;;;;;;;2.87;1.60;;;9.40;99.90;;;;;;5005376;28;20453;-74
2023/12/29 09:10:21;;;;;;;1.30;1.20;;;9.40;99.90;;;;;;4995162;28;20306;-71
2023/12/29 09:12:47;;;;;;;1.20;1.20;;;9.50;99.90;;;;;;4989510;28;20316;-73
2023/12/29 09:15:12;;;;;;;6.97;1.77;;;9.50;99.90;;;;;;4983730;28;20602;-74
2023/12/29 09:17:38;;;;;;;1.70;1.60;;;9.50;99.90;;;;;;4994751;28;20222;-74
2023/12/29 09:20:04;;;;;;;1.43;1.10;;;9.50;99.90;;;;;;4977478;28;20228;-75
2023/12/29 09:22:30;;;;;;;3.17;1.67;;;9.50;99.90;;;;;;5003734;28;20222;-74
2023/12/29 09:24:55;;;;;;;1.30;1.07;;;9.50;99.90;;;;;;4992183;28;20479;-74
2023/12/29 09:27:21;;;;;;;1.50;1.40;;;9.50;99.90;;;;;;4992639;28;20301;-75
2023/12/29 09:29:47;;;;;;;4.50;1.50;;;9.50;99.90;;;;;;4992217;28;20361;-75
2023/12/29 09:32:13;;;;;;;1.43;1.33;;;9.60;99.90;;;;;;5008772;28;20252;-74
2023/12/29 09:34:38;;;;;;;1.40;1.17;;;9.50;99.90;;;;;;5005471;28;20213;-75
2023/12/29 09:37:04;;;;;;;1.73;1.33;;;9.60;99.90;;;;;;4995612;28;20233;-75
2023/12/29 09:39:31;;;;;;;2.80;1.40;;;9.60;99.90;;;;;;4996553;28;20236;-74
2023/12/29 09:42:01;;;;;;;4.20;1.73;;;9.60;99.90;;;;;;4995852;28;20285;-75
2023/12/29 09:44:30;;;;;;;2.67;1.60;;;9.60;99.90;;;;;;4980947;28;20453;-74
2023/12/29 09:47:01;;;;;;;1.93;1.70;;;9.60;99.90;;;;;;4997181;28;20465;-74
2023/12/29 09:49:36;;;;;;;4.67;1.80;;;9.60;99.90;;;;;;5014419;28;20457;-75
2023/12/29 09:52:03;;;;;;;1.40;1.27;;;9.70;99.90;;;;;;5000782;28;20456;-75
2023/12/29 09:54:30;;;;;;;1.97;1.40;;;9.70;99.90;;;;;;4985624;28;20520;-75
2023/12/29 09:56:57;;;;;;;1.40;1.30;;;9.70;99.90;;;;;;4985662;28;20524;-74
2023/12/29 09:59:25;;;;;;;2.30;0.93;;;9.70;99.90;;;;;;4991867;28;20457;-74
2023/12/29 10:01:52;;;;;;;3.67;1.83;;;9.70;99.90;;;;;;5004339;28;20477;-74
2023/12/29 10:04:18;;;;;;;3.17;1.63;;;9.80;99.90;;;;;;4997394;28;20466;-74
2023/12/29 10:06:47;;;;;;;1.47;1.37;;;9.80;99.90;;;;;;4998188;28;21022;-74
2023/12/29 10:09:15;;;;;;;2.60;1.13;;;9.80;99.90;;;;;;5005350;28;20222;-74
2023/12/29 10:11:46;;;;;;;1.50;1.13;;;9.80;99.90;;;;;;5007713;28;20468;-74
2023/12/29 10:14:55;;;;;;;1.40;1.30;;;9.80;99.90;;;;;;4994463;28;20443;-73
2023/12/29 10:18:02;;;;;;;5.83;5.30;;;9.80;99.90;;;;;;5028738;28;20519;-74
2023/12/29 10:20:37;;;;;;;4.60;4.20;;;9.80;99.90;;;;;;5003647;28;20465;-74
2023/12/29 10:23:08;;;;;;;3.20;2.90;;;9.80;99.90;;;;;;4989990;28;20490;-74
2023/12/29 10:25:35;;;;;;;4.33;3.27;;;9.80;99.90;;;;;;5005967;28;20492;-74
2023/12/29 10:28:02;;;;;;;2.03;1.83;;;9.80;99.90;;;;;;5008195;28;20456;-74
2023/12/29 10:30:28;;;;;;;3.40;2.40;;;9.90;99.90;;;;;;5027645;28;20452;-74
2023/12/29 10:32:54;;;;;;;1.60;1.50;;;9.80;99.90;;;;;;5025200;28;20455;-74
2023/12/29 10:35:20;;;;;;;2.37;2.17;;;9.80;99.90;;;;;;5006190;28;20449;-74
2023/12/29 10:37:46;;;;;;;2.33;2.13;;;9.90;99.90;;;;;;5003615;28;20477;-74
2023/12/29 10:40:18;;;;;;;6.60;2.47;;;9.80;99.90;;;;;;5004173;28;20314;-74
2023/12/29 10:42:57;;;;;;;2.47;2.07;;;9.90;99.90;;;;;;4999477;28;20223;-74
2023/12/29 10:45:24;;;;;;;3.27;1.90;;;9.90;99.90;;;;;;5016019;28;20457;-75
2023/12/29 10:47:50;;;;;;;4.73;1.67;;;9.90;99.90;;;;;;5006739;28;20575;-74
2023/12/29 10:50:16;;;;;;;3.27;2.23;;;9.90;99.90;;;;;;4998441;28;20453;-74
2023/12/29 10:52:42;;;;;;;2.43;2.23;;;9.90;99.90;;;;;;4989125;28;20457;-74
2023/12/29 10:55:11;;;;;;;3.23;2.10;;;9.90;99.90;;;;;;5008581;28;20220;-74
2023/12/29 10:57:38;;;;;;;7.73;2.47;;;9.90;99.90;;;;;;5026318;28;20232;-74
2023/12/29 11:00:07;;;;;;;2.70;2.07;;;9.90;99.90;;;;;;4992077;28;20557;-75
2023/12/29 11:02:34;;;;;;;4.23;2.07;;;9.90;99.90;;;;;;5023229;28;20545;-74
2023/12/29 11:05:07;;;;;;;5.17;3.87;;;10.00;99.90;;;;;;5005691;28;20480;-75
2023/12/29 11:07:40;;;;;;;3.73;2.87;;;10.00;99.90;;;;;;5006340;28;20459;-74
2023/12/29 11:10:07;;;;;;;4.30;2.50;;;10.00;99.90;;;;;;5021041;28;20464;-74
2023/12/29 11:12:37;;;;;;;4.37;2.80;;;10.00;99.90;;;;;;5009135;28;20445;-74
2023/12/29 11:15:05;;;;;;;4.00;2.60;;;10.00;99.90;;;;;;4998379;28;20453;-75
2023/12/29 11:17:33;;;;;;;5.60;1.93;;;10.00;99.90;;;;;;5007147;28;20524;-74
2023/12/29 11:20:00;;;;;;;4.53;2.77;;;10.00;99.90;;;;;;4999124;28;20461;-75
2023/12/29 11:22:30;;;;;;;3.13;2.50;;;9.90;99.90;;;;;;4988682;28;20510;-75
2023/12/29 11:24:58;;;;;;;1.67;1.57;;;10.00;99.90;;;;;;5001994;28;20465;-74
2023/12/29 11:27:30;;;;;;;2.40;2.20;;;10.00;99.90;;;;;;4995348;28;20450;-74
2023/12/29 11:29:58;;;;;;;2.73;2.10;;;10.00;99.90;;;;;;4995851;28;20456;-74
2023/12/29 11:32:51;;;;;;;2.10;1.90;;;10.00;99.90;;;;;;4997968;28;20521;-75
2023/12/29 11:35:46;;;;;;;4.23;2.50;;;10.00;99.90;;;;;;5016557;28;20473;-74
2023/12/29 11:38:20;;;;;;;4.97;3.00;;;10.00;99.90;;;;;;5003239;28;20476;-74
2023/12/29 11:40:52;;;;;;;6.37;3.50;;;10.00;99.90;;;;;;5005822;28;20468;-75
2023/12/29 11:43:19;;;;;;;4.37;3.17;;;10.00;99.90;;;;;;5005716;28;20500;-74
2023/12/29 11:45:45;;;;;;;40.40;16.97;;;10.00;99.90;;;;;;4998486;28;20469;-74
2023/12/29 11:48:11;;;;;;;15.70;11.23;;;10.00;99.90;;;;;;4982639;28;21058;-74
2023/12/29 11:50:42;;;;;;;8.63;6.57;;;10.00;99.90;;;;;;4996323;28;20230;-74
2023/12/29 11:53:08;;;;;;;9.00;5.23;;;10.00;99.90;;;;;;5006913;28;20459;-74
2023/12/29 11:55:39;;;;;;;7.50;5.10;;;10.00;99.90;;;;;;4997068;28;20495;-75
2023/12/29 11:58:28;;;;;;;6.30;4.40;;;10.00;99.90;;;;;;5023955;28;20548;-74
2023/12/29 12:00:54;;;;;;;3.10;2.80;;;10.00;99.90;;;;;;5009424;28;20496;-75
2023/12/29 12:03:27;;;;;;;2.20;2.10;;;10.00;99.90;;;;;;5000186;28;20884;-74
2023/12/29 12:05:56;;;;;;;1.80;1.70;;;10.00;99.90;;;;;;4996966;28;20470;-74
2023/12/29 12:08:37;;;;;;;2.90;2.20;;;10.00;99.90;;;;;;5001243;28;20445;-74
2023/12/29 12:11:33;;;;;;;3.33;1.80;;;10.00;99.90;;;;;;5002528;28;20488;-74
2023/12/29 12:13:59;;;;;;;2.00;1.53;;;10.10;99.90;;;;;;4996242;28;20474;-75
2023/12/29 12:16:50;;;;;;;1.77;1.67;;;10.10;99.90;;;;;;4989827;28;20451;-74
2023/12/29 12:19:17;;;;;;;2.87;1.90;;;10.00;99.90;;;;;;4989793;28;20235;-74
2023/12/29 12:21:45;;;;;;;1.40;1.30;;;10.10;99.90;;;;;;4999671;28;21003;-74
2023/12/29 12:24:11;;;;;;;2.23;2.10;;;10.10;99.90;;;;;;4989535;28;20556;-75
2023/12/29 12:26:36;;;;;;;4.17;3.77;;;10.10;99.90;;;;;;4991479;28;20550;-74
2023/12/29 12:29:04;;;;;;;4.00;3.53;;;10.10;99.90;;;;;;4997611;28;20218;-75
2023/12/29 12:31:29;;;;;;;2.40;2.20;;;10.10;99.90;;;;;;5003916;28;20238;-74
2023/12/29 12:33:56;;;;;;;4.00;2.50;;;10.20;99.90;;;;;;4993207;28;20466;-74
2023/12/29 12:36:22;;;;;;;3.10;2.80;;;10.20;99.90;;;;;;4995482;28;20226;-74
2023/12/29 12:38:56;;;;;;;3.40;2.83;;;10.20;99.90;;;;;;4991304;28;20470;-74
2023/12/29 12:41:26;;;;;;;2.80;2.60;;;10.20;99.90;;;;;;5005422;28;20935;-74
2023/12/29 12:44:11;;;;;;;2.57;2.27;;;10.20;99.90;;;;;;5009452;28;20512;-74
2023/12/29 12:46:51;;;;;;;1.63;1.53;;;10.30;99.90;;;;;;5005216;28;20469;-74
2023/12/29 12:49:18;;;;;;;2.93;1.63;;;10.30;99.90;;;;;;4997465;28;20456;-74
2023/12/29 12:51:44;;;;;;;2.30;0.97;;;10.30;99.90;;;;;;5008242;28;20472;-74
2023/12/29 12:54:11;;;;;;;3.93;1.03;;;10.20;99.90;;;;;;4993310;28;20456;-74
2023/12/29 12:56:37;;;;;;;1.23;0.87;;;10.20;99.90;;;;;;4996953;28;20495;-74